sensor_id;sensor_type;location;lat;lon;timestamp;temperature;humidity
52203;DHT22;38173;52.850;6.970;2024-01-30T00:01:52;4.40;99.90
52203;DHT22;38173;52.850;6.970;2024-01-30T00:04:18;4.40;99.90
52203;DHT22;38173;52.850;6.970;2024-01-30T00:06:44;4.30;99.90
52203;DHT22;38173;52.850;6.970;2024-01-30T00:09:10;4.40;99.90
52203;DHT22;38173;52.850;6.970;2024-01-30T00:11:39;4.40;99.90
52203;DHT22;38173;52.850;6.970;2024-01-30T00:14:04;4.40;99.90
52203;DHT22;38173;52.850;6.970;2024-01-30T00:16:30;4.50;99.90
52203;DHT22;38173;52.850;6.970;2024-01-30T00:18:56;4.50;99.90
52203;DHT22;38173;52.850;6.970;2024-01-30T00:21:22;4.60;99.90
52203;DHT22;38173;52.850;6.970;2024-01-30T00:23:48;4.70;99.90
52203;DHT22;38173;52.850;6.970;2024-01-30T00:26:16;4.80;99.90
52203;DHT22;38173;52.850;6.970;2024-01-30T00:28:42;4.70;99.90
52203;DHT22;38173;52.850;6.970;2024-01-30T00:31:08;4.80;99.90
52203;DHT22;38173;52.850;6.970;2024-01-30T00:33:38;4.70;99.90
52203;DHT22;38173;52.850;6.970;2024-01-30T00:36:05;4.80;99.90
52203;DHT22;38173;52.850;6.970;2024-01-30T00:38:32;4.80;99.90
52203;DHT22;38173;52.850;6.970;2024-01-30T00:40:57;4.80;99.90
52203;DHT22;38173;52.850;6.970;2024-01-30T00:43:23;4.80;99.90
52203;DHT22;38173;52.850;6.970;2024-01-30T00:45:50;4.80;99.90
52203;DHT22;38173;52.850;6.970;2024-01-30T00:48:17;4.80;99.90
52203;DHT22;38173;52.850;6.970;2024-01-30T00:50:43;4.80;99.90
52203;DHT22;38173;52.850;6.970;2024-01-30T00:53:08;4.80;99.90
52203;DHT22;38173;52.850;6.970;2024-01-30T00:55:35;4.70;99.90
52203;DHT22;38173;52.850;6.970;2024-01-30T00:58:01;4.70;99.90
52203;DHT22;38173;52.850;6.970;2024-01-30T01:00:26;4.70;99.90
52203;DHT22;38173;52.850;6.970;2024-01-30T01:02:55;4.70;99.90
52203;DHT22;38173;52.850;6.970;2024-01-30T01:05:21;4.60;99.90
52203;DHT22;38173;52.850;6.970;2024-01-30T01:07:46;4.60;99.90
52203;DHT22;38173;52.850;6.970;2024-01-30T01:10:14;4.50;99.90
52203;DHT22;38173;52.850;6.970;2024-01-30T01:12:40;4.50;99.90
52203;DHT22;38173;52.850;6.970;2024-01-30T01:15:06;4.50;99.90
52203;DHT22;38173;52.850;6.970;2024-01-30T01:17:34;4.50;99.90
52203;DHT22;38173;52.850;6.970;2024-01-30T01:20:00;4.40;99.90
52203;DHT22;38173;52.850;6.970;2024-01-30T01:22:26;4.40;99.90
52203;DHT22;38173;52.850;6.970;2024-01-30T01:24:51;4.40;99.90
52203;DHT22;38173;52.850;6.970;2024-01-30T01:27:17;4.40;99.90
52203;DHT22;38173;52.850;6.970;2024-01-30T01:29:45;4.40;99.90
52203;DHT22;38173;52.850;6.970;2024-01-30T01:32:11;4.30;99.90
52203;DHT22;38173;52.850;6.970;2024-01-30T01:34:36;4.30;99.90
52203;DHT22;38173;52.850;6.970;2024-01-30T01:37:02;4.30;99.90
52203;DHT22;38173;52.850;6.970;2024-01-30T01:39:28;4.30;99.90
52203;DHT22;38173;52.850;6.970;2024-01-30T01:41:53;4.30;99.90
52203;DHT22;38173;52.850;6.970;2024-01-30T01:44:19;4.30;99.90
52203;DHT22;38173;52.850;6.970;2024-01-30T01:46:45;4.30;99.90
52203;DHT22;38173;52.850;6.970;2024-01-30T01:49:11;4.30;99.90
52203;DHT22;38173;52.850;6.970;2024-01-30T01:51:37;4.30;99.90
52203;DHT22;38173;52.850;6.970;2024-01-30T01:54:04;4.30;99.90
52203;DHT22;38173;52.850;6.970;2024-01-30T01:56:31;4.30;99.90
52203;DHT22;38173;52.850;6.970;2024-01-30T01:59:00;4.30;99.90
52203;DHT22;38173;52.850;6.970;2024-01-30T02:01:29;4.30;99.90
52203;DHT22;38173;52.850;6.970;2024-01-30T02:03:55;4.30;99.90
52203;DHT22;38173;52.850;6.970;2024-01-30T02:06:21;4.40;99.90
52203;DHT22;38173;52.850;6.970;2024-01-30T02:08:47;4.60;99.90
52203;DHT22;38173;52.850;6.970;2024-01-30T02:11:12;4.60;99.90
52203;DHT22;38173;52.850;6.970;2024-01-30T02:13:38;4.70;99.90
52203;DHT22;38173;52.850;6.970;2024-01-30T02:16:04;4.90;99.90
52203;DHT22;38173;52.850;6.970;2024-01-30T02:18:30;5.00;99.90
52203;DHT22;38173;52.850;6.970;2024-01-30T02:20:58;5.00;99.90
52203;DHT22;38173;52.850;6.970;2024-01-30T02:23:24;5.10;99.90
52203;DHT22;38173;52.850;6.970;2024-01-30T02:25:53;5.10;99.90
52203;DHT22;38173;52.850;6.970;2024-01-30T02:28:19;5.10;99.90
52203;DHT22;38173;52.850;6.970;2024-01-30T02:30:45;5.10;99.90
52203;DHT22;38173;52.850;6.970;2024-01-30T02:33:12;5.00;99.90
52203;DHT22;38173;52.850;6.970;2024-01-30T02:35:40;5.10;99.90
52203;DHT22;38173;52.850;6.970;2024-01-30T02:38:06;5.10;99.90
52203;DHT22;38173;52.850;6.970;2024-01-30T02:40:31;5.10;99.90
52203;DHT22;38173;52.850;6.970;2024-01-30T02:42:59;5.10;99.90
52203;DHT22;38173;52.850;6.970;2024-01-30T02:45:25;5.10;99.90
52203;DHT22;38173;52.850;6.970;2024-01-30T02:47:51;5.10;99.90
52203;DHT22;38173;52.850;6.970;2024-01-30T02:50:17;5.00;99.90
52203;DHT22;38173;52.850;6.970;2024-01-30T02:52:43;5.00;99.90
52203;DHT22;38173;52.850;6.970;2024-01-30T02:55:11;5.00;99.90
52203;DHT22;38173;52.850;6.970;2024-01-30T02:57:38;5.00;99.90
52203;DHT22;38173;52.850;6.970;2024-01-30T03:00:04;4.90;99.90
52203;DHT22;38173;52.850;6.970;2024-01-30T03:02:32;4.90;99.90
52203;DHT22;38173;52.850;6.970;2024-01-30T03:04:58;4.80;99.90
52203;DHT22;38173;52.850;6.970;2024-01-30T03:07:23;4.80;99.90
52203;DHT22;38173;52.850;6.970;2024-01-30T03:09:49;4.80;99.90
52203;DHT22;38173;52.850;6.970;2024-01-30T03:12:15;4.80;99.90
52203;DHT22;38173;52.850;6.970;2024-01-30T03:14:40;4.90;99.90
52203;DHT22;38173;52.850;6.970;2024-01-30T03:17:06;4.90;99.90
52203;DHT22;38173;52.850;6.970;2024-01-30T03:19:33;4.90;99.90
52203;DHT22;38173;52.850;6.970;2024-01-30T03:21:59;5.00;99.90
52203;DHT22;38173;52.850;6.970;2024-01-30T03:24:25;5.00;99.90
52203;DHT22;38173;52.850;6.970;2024-01-30T03:26:51;5.00;99.90
52203;DHT22;38173;52.850;6.970;2024-01-30T03:29:17;5.00;99.90
52203;DHT22;38173;52.850;6.970;2024-01-30T03:31:43;5.00;99.90
52203;DHT22;38173;52.850;6.970;2024-01-30T03:34:08;5.00;99.90
52203;DHT22;38173;52.850;6.970;2024-01-30T03:36:34;5.00;99.90
52203;DHT22;38173;52.850;6.970;2024-01-30T03:39:02;4.90;99.90
52203;DHT22;38173;52.850;6.970;2024-01-30T03:41:28;4.90;99.90
52203;DHT22;38173;52.850;6.970;2024-01-30T03:43:54;4.90;99.90
52203;DHT22;38173;52.850;6.970;2024-01-30T03:46:20;4.80;99.90
52203;DHT22;38173;52.850;6.970;2024-01-30T03:48:45;4.90;99.90
52203;DHT22;38173;52.850;6.970;2024-01-30T03:51:11;4.90;99.90
52203;DHT22;38173;52.850;6.970;2024-01-30T03:53:40;5.00;99.90
52203;DHT22;38173;52.850;6.970;2024-01-30T03:56:07;5.10;99.90
52203;DHT22;38173;52.850;6.970;2024-01-30T03:58:33;5.20;99.90
52203;DHT22;38173;52.850;6.970;2024-01-30T04:00:58;5.20;99.90
52203;DHT22;38173;52.850;6.970;2024-01-30T04:03:24;5.30;99.90
52203;DHT22;38173;52.850;6.970;2024-01-30T04:05:51;5.30;99.90
52203;DHT22;38173;52.850;6.970;2024-01-30T04:08:17;5.30;99.90
52203;DHT22;38173;52.850;6.970;2024-01-30T04:10:43;5.50;99.90
52203;DHT22;38173;52.850;6.970;2024-01-30T04:13:09;5.60;99.90
52203;DHT22;38173;52.850;6.970;2024-01-30T04:15:34;5.60;99.90
52203;DHT22;38173;52.850;6.970;2024-01-30T04:18:00;5.70;99.90
52203;DHT22;38173;52.850;6.970;2024-01-30T04:20:26;5.70;99.90
52203;DHT22;38173;52.850;6.970;2024-01-30T04:22:51;5.80;99.90
52203;DHT22;38173;52.850;6.970;2024-01-30T04:25:17;5.80;99.90
52203;DHT22;38173;52.850;6.970;2024-01-30T04:27:43;5.80;99.90
52203;DHT22;38173;52.850;6.970;2024-01-30T04:30:09;5.90;99.90
52203;DHT22;38173;52.850;6.970;2024-01-30T04:32:35;6.00;99.90
52203;DHT22;38173;52.850;6.970;2024-01-30T04:35:02;6.00;99.90
52203;DHT22;38173;52.850;6.970;2024-01-30T04:37:27;6.00;99.90
52203;DHT22;38173;52.850;6.970;2024-01-30T04:39:53;6.10;99.90
52203;DHT22;38173;52.850;6.970;2024-01-30T04:42:19;6.20;99.90
52203;DHT22;38173;52.850;6.970;2024-01-30T04:44:45;6.10;99.90
52203;DHT22;38173;52.850;6.970;2024-01-30T04:47:10;6.20;99.90
52203;DHT22;38173;52.850;6.970;2024-01-30T04:49:40;6.10;99.90
52203;DHT22;38173;52.850;6.970;2024-01-30T04:52:06;6.10;99.90
52203;DHT22;38173;52.850;6.970;2024-01-30T04:54:32;6.10;99.90
52203;DHT22;38173;52.850;6.970;2024-01-30T04:56:58;6.10;99.90
52203;DHT22;38173;52.850;6.970;2024-01-30T04:59:24;6.10;99.90
52203;DHT22;38173;52.850;6.970;2024-01-30T05:01:50;6.10;99.90
52203;DHT22;38173;52.850;6.970;2024-01-30T05:04:16;6.10;99.90
52203;DHT22;38173;52.850;6.970;2024-01-30T05:06:42;6.10;99.90
52203;DHT22;38173;52.850;6.970;2024-01-30T05:09:08;6.20;99.90
52203;DHT22;38173;52.850;6.970;2024-01-30T05:11:38;6.20;99.90
52203;DHT22;38173;52.850;6.970;2024-01-30T05:14:05;6.20;99.90
52203;DHT22;38173;52.850;6.970;2024-01-30T05:16:31;6.20;99.90
52203;DHT22;38173;52.850;6.970;2024-01-30T05:18:57;6.20;99.90
52203;DHT22;38173;52.850;6.970;2024-01-30T05:21:23;6.20;99.90
52203;DHT22;38173;52.850;6.970;2024-01-30T05:23:49;6.20;99.90
52203;DHT22;38173;52.850;6.970;2024-01-30T05:26:14;6.20;99.90
52203;DHT22;38173;52.850;6.970;2024-01-30T05:28:40;6.20;99.90
52203;DHT22;38173;52.850;6.970;2024-01-30T05:31:06;6.20;99.90
52203;DHT22;38173;52.850;6.970;2024-01-30T05:33:31;6.20;99.90
52203;DHT22;38173;52.850;6.970;2024-01-30T05:35:57;6.10;99.90
52203;DHT22;38173;52.850;6.970;2024-01-30T05:38:23;6.10;99.90
52203;DHT22;38173;52.850;6.970;2024-01-30T05:40:48;6.10;99.90
52203;DHT22;38173;52.850;6.970;2024-01-30T05:43:14;6.10;99.90
52203;DHT22;38173;52.850;6.970;2024-01-30T05:45:40;6.10;99.90
52203;DHT22;38173;52.850;6.970;2024-01-30T05:48:05;6.10;99.90
52203;DHT22;38173;52.850;6.970;2024-01-30T05:50:31;6.10;99.90
52203;DHT22;38173;52.850;6.970;2024-01-30T05:52:57;6.20;99.90
52203;DHT22;38173;52.850;6.970;2024-01-30T05:55:23;6.20;99.90
52203;DHT22;38173;52.850;6.970;2024-01-30T05:57:48;6.20;99.90
52203;DHT22;38173;52.850;6.970;2024-01-30T06:00:14;6.30;99.90
52203;DHT22;38173;52.850;6.970;2024-01-30T06:02:40;6.30;99.90
52203;DHT22;38173;52.850;6.970;2024-01-30T06:05:06;6.40;99.90
52203;DHT22;38173;52.850;6.970;2024-01-30T06:07:32;6.50;99.90
52203;DHT22;38173;52.850;6.970;2024-01-30T06:09:57;6.50;99.90
52203;DHT22;38173;52.850;6.970;2024-01-30T06:12:23;6.50;99.90
52203;DHT22;38173;52.850;6.970;2024-01-30T06:14:49;6.50;99.90
52203;DHT22;38173;52.850;6.970;2024-01-30T06:17:15;6.60;99.90
52203;DHT22;38173;52.850;6.970;2024-01-30T06:19:40;6.60;99.90
52203;DHT22;38173;52.850;6.970;2024-01-30T06:22:07;6.60;99.90
52203;DHT22;38173;52.850;6.970;2024-01-30T06:24:32;6.60;99.90
52203;DHT22;38173;52.850;6.970;2024-01-30T06:26:59;6.70;99.90
52203;DHT22;38173;52.850;6.970;2024-01-30T06:29:26;6.60;99.90
52203;DHT22;38173;52.850;6.970;2024-01-30T06:31:52;6.70;99.90
52203;DHT22;38173;52.850;6.970;2024-01-30T06:34:18;6.70;99.90
52203;DHT22;38173;52.850;6.970;2024-01-30T06:36:44;6.70;99.90
52203;DHT22;38173;52.850;6.970;2024-01-30T06:39:10;6.70;99.90
52203;DHT22;38173;52.850;6.970;2024-01-30T06:41:35;6.70;99.90
52203;DHT22;38173;52.850;6.970;2024-01-30T06:44:04;6.80;99.90
52203;DHT22;38173;52.850;6.970;2024-01-30T06:46:32;6.80;99.90
52203;DHT22;38173;52.850;6.970;2024-01-30T06:48:58;6.80;99.90
52203;DHT22;38173;52.850;6.970;2024-01-30T06:51:23;6.90;99.90
52203;DHT22;38173;52.850;6.970;2024-01-30T06:53:49;6.90;99.90
52203;DHT22;38173;52.850;6.970;2024-01-30T06:56:15;6.90;99.90
52203;DHT22;38173;52.850;6.970;2024-01-30T06:58:41;6.90;99.90
52203;DHT22;38173;52.850;6.970;2024-01-30T07:01:06;7.00;99.90
52203;DHT22;38173;52.850;6.970;2024-01-30T07:03:32;6.90;99.90
52203;DHT22;38173;52.850;6.970;2024-01-30T07:05:58;7.00;99.90
52203;DHT22;38173;52.850;6.970;2024-01-30T07:08:24;7.00;99.90
52203;DHT22;38173;52.850;6.970;2024-01-30T07:10:49;7.00;99.90
52203;DHT22;38173;52.850;6.970;2024-01-30T07:13:15;7.10;99.90
52203;DHT22;38173;52.850;6.970;2024-01-30T07:15:42;7.10;99.90
52203;DHT22;38173;52.850;6.970;2024-01-30T07:18:08;7.10;99.90
52203;DHT22;38173;52.850;6.970;2024-01-30T07:20:35;7.20;99.90
52203;DHT22;38173;52.850;6.970;2024-01-30T07:23:01;7.20;99.90
52203;DHT22;38173;52.850;6.970;2024-01-30T07:25:27;7.20;99.90
52203;DHT22;38173;52.850;6.970;2024-01-30T07:27:57;7.20;99.90
52203;DHT22;38173;52.850;6.970;2024-01-30T07:30:23;7.20;99.90
52203;DHT22;38173;52.850;6.970;2024-01-30T07:32:49;7.20;99.90
52203;DHT22;38173;52.850;6.970;2024-01-30T07:35:15;7.20;99.90
52203;DHT22;38173;52.850;6.970;2024-01-30T07:37:40;7.20;99.90
52203;DHT22;38173;52.850;6.970;2024-01-30T07:40:06;7.20;99.90
52203;DHT22;38173;52.850;6.970;2024-01-30T07:42:33;7.20;99.90
52203;DHT22;38173;52.850;6.970;2024-01-30T07:44:59;7.30;99.90
52203;DHT22;38173;52.850;6.970;2024-01-30T07:47:25;7.30;99.90
52203;DHT22;38173;52.850;6.970;2024-01-30T07:49:51;7.40;99.90
52203;DHT22;38173;52.850;6.970;2024-01-30T07:52:17;7.40;99.90
52203;DHT22;38173;52.850;6.970;2024-01-30T07:54:45;7.40;99.90
52203;DHT22;38173;52.850;6.970;2024-01-30T07:57:11;7.40;99.90
52203;DHT22;38173;52.850;6.970;2024-01-30T07:59:37;7.40;99.90
52203;DHT22;38173;52.850;6.970;2024-01-30T08:02:02;7.40;99.90
52203;DHT22;38173;52.850;6.970;2024-01-30T08:04:28;7.50;99.90
52203;DHT22;38173;52.850;6.970;2024-01-30T08:06:54;7.50;99.90
52203;DHT22;38173;52.850;6.970;2024-01-30T08:09:19;7.50;99.90
52203;DHT22;38173;52.850;6.970;2024-01-30T08:11:45;7.60;99.90
52203;DHT22;38173;52.850;6.970;2024-01-30T08:14:11;7.70;99.90
52203;DHT22;38173;52.850;6.970;2024-01-30T08:16:37;7.70;99.90
52203;DHT22;38173;52.850;6.970;2024-01-30T08:19:02;7.70;99.90
52203;DHT22;38173;52.850;6.970;2024-01-30T08:21:28;7.70;99.90
52203;DHT22;38173;52.850;6.970;2024-01-30T08:23:54;7.80;99.90
52203;DHT22;38173;52.850;6.970;2024-01-30T08:26:19;7.80;99.90
52203;DHT22;38173;52.850;6.970;2024-01-30T08:28:45;7.80;99.90
52203;DHT22;38173;52.850;6.970;2024-01-30T08:31:11;7.90;99.90
52203;DHT22;38173;52.850;6.970;2024-01-30T08:33:37;7.90;99.90
52203;DHT22;38173;52.850;6.970;2024-01-30T08:36:03;7.90;99.90
52203;DHT22;38173;52.850;6.970;2024-01-30T08:38:29;7.90;99.90
52203;DHT22;38173;52.850;6.970;2024-01-30T08:40:55;7.90;99.90
52203;DHT22;38173;52.850;6.970;2024-01-30T08:43:21;8.00;99.90
52203;DHT22;38173;52.850;6.970;2024-01-30T08:45:47;8.00;99.90
52203;DHT22;38173;52.850;6.970;2024-01-30T08:48:12;8.10;99.90
52203;DHT22;38173;52.850;6.970;2024-01-30T08:50:38;8.10;99.90
52203;DHT22;38173;52.850;6.970;2024-01-30T08:53:04;8.10;99.90
52203;DHT22;38173;52.850;6.970;2024-01-30T08:55:30;8.10;99.90
52203;DHT22;38173;52.850;6.970;2024-01-30T08:57:55;8.20;99.90
52203;DHT22;38173;52.850;6.970;2024-01-30T09:00:21;8.20;99.90
52203;DHT22;38173;52.850;6.970;2024-01-30T09:02:47;8.20;99.90
52203;DHT22;38173;52.850;6.970;2024-01-30T09:05:16;8.20;99.90
52203;DHT22;38173;52.850;6.970;2024-01-30T09:07:41;8.30;99.90
52203;DHT22;38173;52.850;6.970;2024-01-30T09:10:07;8.30;99.90
52203;DHT22;38173;52.850;6.970;2024-01-30T09:12:33;8.30;99.90
52203;DHT22;38173;52.850;6.970;2024-01-30T09:14:58;8.40;99.90
52203;DHT22;38173;52.850;6.970;2024-01-30T09:17:25;8.40;99.90
52203;DHT22;38173;52.850;6.970;2024-01-30T09:19:51;8.50;99.90
52203;DHT22;38173;52.850;6.970;2024-01-30T09:22:17;8.50;99.90
52203;DHT22;38173;52.850;6.970;2024-01-30T09:24:43;8.60;99.90
52203;DHT22;38173;52.850;6.970;2024-01-30T09:27:08;8.60;99.90
52203;DHT22;38173;52.850;6.970;2024-01-30T09:29:34;8.60;99.90
52203;DHT22;38173;52.850;6.970;2024-01-30T09:32:01;8.60;99.90
52203;DHT22;38173;52.850;6.970;2024-01-30T09:34:27;8.70;99.90
52203;DHT22;38173;52.850;6.970;2024-01-30T09:36:53;8.70;99.90
52203;DHT22;38173;52.850;6.970;2024-01-30T09:39:18;8.70;99.90
52203;DHT22;38173;52.850;6.970;2024-01-30T09:41:49;8.70;99.90
52203;DHT22;38173;52.850;6.970;2024-01-30T09:44:17;8.70;99.90
52203;DHT22;38173;52.850;6.970;2024-01-30T09:46:47;8.80;99.90
52203;DHT22;38173;52.850;6.970;2024-01-30T09:49:13;8.80;99.90
52203;DHT22;38173;52.850;6.970;2024-01-30T09:51:40;8.90;99.90
52203;DHT22;38173;52.850;6.970;2024-01-30T09:54:08;9.10;99.90
52203;DHT22;38173;52.850;6.970;2024-01-30T09:56:36;9.10;99.90
52203;DHT22;38173;52.850;6.970;2024-01-30T09:59:02;9.20;99.90
52203;DHT22;38173;52.850;6.970;2024-01-30T10:01:28;9.20;99.90
52203;DHT22;38173;52.850;6.970;2024-01-30T10:03:55;9.30;99.90
52203;DHT22;38173;52.850;6.970;2024-01-30T10:06:21;9.30;99.90
52203;DHT22;38173;52.850;6.970;2024-01-30T10:08:48;9.30;99.90
52203;DHT22;38173;52.850;6.970;2024-01-30T10:11:14;9.30;99.90
52203;DHT22;38173;52.850;6.970;2024-01-30T10:13:39;9.30;99.90
52203;DHT22;38173;52.850;6.970;2024-01-30T10:16:06;9.30;99.90
52203;DHT22;38173;52.850;6.970;2024-01-30T10:18:32;9.30;99.90
52203;DHT22;38173;52.850;6.970;2024-01-30T10:20:59;9.30;99.90
52203;DHT22;38173;52.850;6.970;2024-01-30T10:23:24;9.40;99.90
52203;DHT22;38173;52.850;6.970;2024-01-30T10:25:53;9.50;99.90
52203;DHT22;38173;52.850;6.970;2024-01-30T10:28:19;9.50;99.90
52203;DHT22;38173;52.850;6.970;2024-01-30T10:30:45;9.60;99.90
52203;DHT22;38173;52.850;6.970;2024-01-30T10:33:11;9.60;99.90
52203;DHT22;38173;52.850;6.970;2024-01-30T10:35:37;9.60;99.90
52203;DHT22;38173;52.850;6.970;2024-01-30T10:38:03;9.70;99.90
52203;DHT22;38173;52.850;6.970;2024-01-30T10:40:32;9.70;99.90
52203;DHT22;38173;52.850;6.970;2024-01-30T10:43:01;9.80;99.90
52203;DHT22;38173;52.850;6.970;2024-01-30T10:45:28;9.80;99.90
52203;DHT22;38173;52.850;6.970;2024-01-30T10:47:55;9.90;99.90
52203;DHT22;38173;52.850;6.970;2024-01-30T10:50:26;10.00;99.90
52203;DHT22;38173;52.850;6.970;2024-01-30T10:52:54;10.10;99.90
52203;DHT22;38173;52.850;6.970;2024-01-30T10:55:21;10.10;99.90
52203;DHT22;38173;52.850;6.970;2024-01-30T10:57:48;10.10;99.90
52203;DHT22;38173;52.850;6.970;2024-01-30T11:00:14;10.20;99.90
52203;DHT22;38173;52.850;6.970;2024-01-30T11:02:46;10.20;99.90
52203;DHT22;38173;52.850;6.970;2024-01-30T11:05:12;10.20;99.90
52203;DHT22;38173;52.850;6.970;2024-01-30T11:07:39;10.20;99.90
52203;DHT22;38173;52.850;6.970;2024-01-30T11:10:07;10.20;99.90
52203;DHT22;38173;52.850;6.970;2024-01-30T11:12:39;10.20;99.90
52203;DHT22;38173;52.850;6.970;2024-01-30T11:15:11;10.20;99.90
52203;DHT22;38173;52.850;6.970;2024-01-30T11:20:19;10.20;99.90
52203;DHT22;38173;52.850;6.970;2024-01-30T11:22:46;10.20;99.90
52203;DHT22;38173;52.850;6.970;2024-01-30T11:25:16;10.20;99.90
52203;DHT22;38173;52.850;6.970;2024-01-30T11:27:46;10.20;99.90
52203;DHT22;38173;52.850;6.970;2024-01-30T11:33:08;10.20;99.90
52203;DHT22;38173;52.850;6.970;2024-01-30T11:35:35;10.20;99.90
52203;DHT22;38173;52.850;6.970;2024-01-30T11:38:02;10.20;99.90
52203;DHT22;38173;52.850;6.970;2024-01-30T11:40:29;10.20;99.90
52203;DHT22;38173;52.850;6.970;2024-01-30T11:42:56;10.20;99.90
52203;DHT22;38173;52.850;6.970;2024-01-30T11:45:22;10.30;99.90
52203;DHT22;38173;52.850;6.970;2024-01-30T11:47:48;10.20;99.90
52203;DHT22;38173;52.850;6.970;2024-01-30T11:50:13;10.20;99.90
52203;DHT22;38173;52.850;6.970;2024-01-30T11:52:40;10.20;99.90
52203;DHT22;38173;52.850;6.970;2024-01-30T11:55:07;10.20;99.90
52203;DHT22;38173;52.850;6.970;2024-01-30T11:57:33;10.20;99.90
52203;DHT22;38173;52.850;6.970;2024-01-30T12:00:01;10.30;99.90
52203;DHT22;38173;52.850;6.970;2024-01-30T12:02:26;10.30;99.90
52203;DHT22;38173;52.850;6.970;2024-01-30T12:04:52;10.30;99.90
52203;DHT22;38173;52.850;6.970;2024-01-30T12:07:18;10.30;99.90
52203;DHT22;38173;52.850;6.970;2024-01-30T12:09:53;10.30;99.90
52203;DHT22;38173;52.850;6.970;2024-01-30T12:12:21;10.30;99.90
52203;DHT22;38173;52.850;6.970;2024-01-30T12:14:47;10.30;99.90
52203;DHT22;38173;52.850;6.970;2024-01-30T12:17:29;10.30;99.90
52203;DHT22;38173;52.850;6.970;2024-01-30T12:20:14;10.30;99.90
52203;DHT22;38173;52.850;6.970;2024-01-30T12:22:45;10.30;99.90
52203;DHT22;38173;52.850;6.970;2024-01-30T12:25:15;10.30;99.90
52203;DHT22;38173;52.850;6.970;2024-01-30T12:27:49;10.30;99.90
52203;DHT22;38173;52.850;6.970;2024-01-30T12:30:19;10.40;99.90
52203;DHT22;38173;52.850;6.970;2024-01-30T12:32:46;10.40;99.90
52203;DHT22;38173;52.850;6.970;2024-01-30T12:35:14;10.40;99.90
52203;DHT22;38173;52.850;6.970;2024-01-30T12:37:41;10.50;99.90
52203;DHT22;38173;52.850;6.970;2024-01-30T12:40:08;10.50;99.90
52203;DHT22;38173;52.850;6.970;2024-01-30T12:42:35;10.60;99.90
52203;DHT22;38173;52.850;6.970;2024-01-30T12:45:04;10.60;99.90
52203;DHT22;38173;52.850;6.970;2024-01-30T12:47:30;10.60;99.90
52203;DHT22;38173;52.850;6.970;2024-01-30T12:49:56;10.70;99.90
52203;DHT22;38173;52.850;6.970;2024-01-30T12:52:22;10.80;99.90
52203;DHT22;38173;52.850;6.970;2024-01-30T12:54:49;10.80;99.90
52203;DHT22;38173;52.850;6.970;2024-01-30T12:57:17;10.90;99.90
52203;DHT22;38173;52.850;6.970;2024-01-30T12:59:44;11.00;99.90
52203;DHT22;38173;52.850;6.970;2024-01-30T13:02:10;11.00;99.90
52203;DHT22;38173;52.850;6.970;2024-01-30T13:04:36;11.00;99.90
52203;DHT22;38173;52.850;6.970;2024-01-30T13:07:02;11.10;99.90
52203;DHT22;38173;52.850;6.970;2024-01-30T13:09:29;11.20;99.90
52203;DHT22;38173;52.850;6.970;2024-01-30T13:11:55;11.20;99.90
52203;DHT22;38173;52.850;6.970;2024-01-30T13:14:24;11.20;99.90
52203;DHT22;38173;52.850;6.970;2024-01-30T13:16:49;11.00;99.90
52203;DHT22;38173;52.850;6.970;2024-01-30T13:19:15;10.90;99.90
52203;DHT22;38173;52.850;6.970;2024-01-30T13:21:41;10.70;99.90
52203;DHT22;38173;52.850;6.970;2024-01-30T13:24:07;10.60;99.90
52203;DHT22;38173;52.850;6.970;2024-01-30T13:26:32;10.60;99.90
52203;DHT22;38173;52.850;6.970;2024-01-30T13:28:58;10.60;99.90
52203;DHT22;38173;52.850;6.970;2024-01-30T13:31:24;10.60;99.90
52203;DHT22;38173;52.850;6.970;2024-01-30T13:33:50;10.60;99.90
52203;DHT22;38173;52.850;6.970;2024-01-30T13:36:16;10.50;99.90
52203;DHT22;38173;52.850;6.970;2024-01-30T13:38:41;10.60;99.90
52203;DHT22;38173;52.850;6.970;2024-01-30T13:41:07;10.50;99.90
52203;DHT22;38173;52.850;6.970;2024-01-30T13:43:33;10.60;99.90
52203;DHT22;38173;52.850;6.970;2024-01-30T13:45:59;10.60;99.90
52203;DHT22;38173;52.850;6.970;2024-01-30T13:48:25;10.60;99.90
52203;DHT22;38173;52.850;6.970;2024-01-30T13:50:50;10.60;99.90
52203;DHT22;38173;52.850;6.970;2024-01-30T13:53:16;10.60;99.90
52203;DHT22;38173;52.850;6.970;2024-01-30T13:55:42;10.60;99.90
52203;DHT22;38173;52.850;6.970;2024-01-30T13:58:08;10.60;99.90
52203;DHT22;38173;52.850;6.970;2024-01-30T14:00:34;10.50;99.90
52203;DHT22;38173;52.850;6.970;2024-01-30T14:03:00;10.50;99.90
52203;DHT22;38173;52.850;6.970;2024-01-30T14:05:26;10.50;99.90
52203;DHT22;38173;52.850;6.970;2024-01-30T14:07:53;10.40;99.90
52203;DHT22;38173;52.850;6.970;2024-01-30T14:10:19;10.30;99.90
52203;DHT22;38173;52.850;6.970;2024-01-30T14:12:44;10.30;99.90
52203;DHT22;38173;52.850;6.970;2024-01-30T14:15:10;10.30;99.90
52203;DHT22;38173;52.850;6.970;2024-01-30T14:17:38;10.20;99.90
52203;DHT22;38173;52.850;6.970;2024-01-30T14:20:04;10.20;99.90
52203;DHT22;38173;52.850;6.970;2024-01-30T14:22:31;10.10;99.90
52203;DHT22;38173;52.850;6.970;2024-01-30T14:24:56;10.00;99.90
52203;DHT22;38173;52.850;6.970;2024-01-30T14:27:22;9.90;99.90
52203;DHT22;38173;52.850;6.970;2024-01-30T14:29:48;9.90;99.90
52203;DHT22;38173;52.850;6.970;2024-01-30T14:32:14;9.90;99.90
52203;DHT22;38173;52.850;6.970;2024-01-30T14:34:39;9.90;99.90
52203;DHT22;38173;52.850;6.970;2024-01-30T14:37:05;9.90;99.90
52203;DHT22;38173;52.850;6.970;2024-01-30T14:39:33;9.80;99.90
52203;DHT22;38173;52.850;6.970;2024-01-30T14:42:03;9.70;99.90
52203;DHT22;38173;52.850;6.970;2024-01-30T14:44:29;9.70;99.90
52203;DHT22;38173;52.850;6.970;2024-01-30T14:46:56;9.70;99.90
52203;DHT22;38173;52.850;6.970;2024-01-30T14:49:21;9.70;99.90
52203;DHT22;38173;52.850;6.970;2024-01-30T14:51:47;9.60;99.90
52203;DHT22;38173;52.850;6.970;2024-01-30T14:54:13;9.60;99.90
52203;DHT22;38173;52.850;6.970;2024-01-30T14:56:39;9.60;99.90
52203;DHT22;38173;52.850;6.970;2024-01-30T14:59:05;9.50;99.90
52203;DHT22;38173;52.850;6.970;2024-01-30T15:01:30;9.60;99.90
52203;DHT22;38173;52.850;6.970;2024-01-30T15:03:56;9.50;99.90
52203;DHT22;38173;52.850;6.970;2024-01-30T15:06:22;9.50;99.90
52203;DHT22;38173;52.850;6.970;2024-01-30T15:08:53;9.50;99.90
52203;DHT22;38173;52.850;6.970;2024-01-30T15:11:19;9.50;99.90
52203;DHT22;38173;52.850;6.970;2024-01-30T15:13:45;9.50;99.90
52203;DHT22;38173;52.850;6.970;2024-01-30T15:16:11;9.40;99.90
52203;DHT22;38173;52.850;6.970;2024-01-30T15:18:38;9.40;99.90
52203;DHT22;38173;52.850;6.970;2024-01-30T15:21:04;9.40;99.90
52203;DHT22;38173;52.850;6.970;2024-01-30T15:23:29;9.30;99.90
52203;DHT22;38173;52.850;6.970;2024-01-30T15:25:55;9.30;99.90
52203;DHT22;38173;52.850;6.970;2024-01-30T15:28:34;9.30;99.90
52203;DHT22;38173;52.850;6.970;2024-01-30T15:31:01;9.30;99.90
52203;DHT22;38173;52.850;6.970;2024-01-30T15:33:27;9.20;99.90
52203;DHT22;38173;52.850;6.970;2024-01-30T15:35:53;9.20;99.90
52203;DHT22;38173;52.850;6.970;2024-01-30T15:38:19;9.20;99.90
52203;DHT22;38173;52.850;6.970;2024-01-30T15:40:46;9.10;99.90
52203;DHT22;38173;52.850;6.970;2024-01-30T15:43:12;9.10;99.90